Time;durP1;ratioP1;P1;durP2;ratioP2;P2;SDS_P1;SDS_P2;PMS_P1;PMS_P2;Temp;Humidity;BMP_temperature;BMP_pressure;BME280_temperature;BME280_humidity;BME280_pressure;Samples;Min_cycle;Max_cycle;Signal;HPM_P1;HPM_P2
2021/08/11 00:03:11;;;;;;;11.10;7.32;;;15.60;99.90;;;;;;12527900;28;20798;-86
2021/08/11 00:09:13;;;;;;;10.95;8.20;;;15.50;99.90;;;;;;12528113;28;20420;-85
2021/08/11 00:15:15;;;;;;;10.80;7.40;;;15.50;99.90;;;;;;12528381;28;20434;-86
2021/08/11 00:21:17;;;;;;;13.55;8.30;;;15.40;99.90;;;;;;12515230;28;20045;-86
2021/08/11 00:27:19;;;;;;;16.83;8.57;;;15.30;99.90;;;;;;12526167;28;20053;-85
2021/08/11 00:33:21;;;;;;;14.15;9.38;;;15.20;99.90;;;;;;12528323;28;20049;-86
2021/08/11 00:39:23;;;;;;;14.82;9.15;;;15.20;99.90;;;;;;12525090;28;20108;-86
2021/08/11 00:45:25;;;;;;;11.73;8.88;;;15.20;99.90;;;;;;12521722;28;20841;-85
2021/08/11 00:51:27;;;;;;;15.40;8.70;;;15.10;99.90;;;;;;12529457;28;20040;-85
2021/08/11 00:57:31;;;;;;;14.52;9.38;;;15.10;99.90;;;;;;12523452;28;20056;-86
2021/08/11 01:03:34;;;;;;;13.43;10.27;;;15.20;99.90;;;;;;12525549;28;20114;-86
2021/08/11 01:09:38;;;;;;;14.23;10.77;;;15.20;99.90;;;;;;12531402;28;20076;-85
2021/08/11 01:15:45;;;;;;;14.80;10.67;;;15.10;99.90;;;;;;12519944;28;20627;-86
2021/08/11 01:22:02;;;;;;;16.17;11.23;;;15.10;99.90;;;;;;12529918;28;20073;-85
2021/08/11 01:28:40;;;;;;;15.25;11.38;;;15.10;99.90;;;;;;12523825;28;20106;-86
2021/08/11 01:34:45;;;;;;;14.50;11.15;;;15.00;99.90;;;;;;12525700;28;21343;-86
2021/08/11 01:40:54;;;;;;;16.85;12.18;;;14.90;99.90;;;;;;12522623;28;20087;-85
2021/08/11 01:46:57;;;;;;;17.88;12.20;;;15.10;99.90;;;;;;12528252;28;20518;-86
2021/08/11 01:53:01;;;;;;;18.00;12.43;;;15.10;99.90;;;;;;12523136;28;20037;-86
2021/08/11 01:59:04;;;;;;;21.07;13.33;;;15.00;99.90;;;;;;12514901;28;20105;-86
2021/08/11 02:05:08;;;;;;;18.60;13.57;;;15.00;99.90;;;;;;12521536;28;20352;-86
2021/08/11 02:11:11;;;;;;;;;;;15.00;99.90;;;;;;12532432;28;20044;-86
2021/08/11 02:17:13;;;;;;;20.52;13.60;;;15.00;99.90;;;;;;12539620;28;20002;-86
2021/08/11 02:23:15;;;;;;;21.40;13.88;;;14.90;99.90;;;;;;12525047;28;20480;-86
2021/08/11 02:29:27;;;;;;;19.27;12.45;;;15.00;99.90;;;;;;12540476;28;20076;-86
2021/08/11 02:35:37;;;;;;;23.35;15.23;;;14.80;99.90;;;;;;12542774;28;20076;-86
2021/08/11 02:41:48;;;;;;;24.38;16.17;;;14.80;99.90;;;;;;12525013;28;20071;-86
2021/08/11 02:47:51;;;;;;;21.88;15.27;;;14.80;99.90;;;;;;12522141;28;20976;-85
2021/08/11 02:53:54;;;;;;;16.00;11.60;;;14.80;99.90;;;;;;12528119;28;20487;-85
2021/08/11 02:59:56;;;;;;;14.07;10.98;;;14.80;99.90;;;;;;12522929;28;20048;-85
2021/08/11 03:05:58;;;;;;;14.60;10.77;;;14.80;99.90;;;;;;12527057;28;20126;-85
2021/08/11 03:12:01;;;;;;;15.20;10.35;;;14.90;99.90;;;;;;12520399;28;20045;-85
2021/08/11 03:18:03;;;;;;;17.92;11.70;;;14.80;99.90;;;;;;12524000;28;20049;-85
2021/08/11 03:24:05;;;;;;;15.85;10.98;;;14.50;99.90;;;;;;12524299;28;20649;-85
2021/08/11 03:30:07;;;;;;;18.75;12.88;;;14.70;99.90;;;;;;12523192;28;20049;-85
2021/08/11 03:36:09;;;;;;;15.70;11.20;;;14.60;99.90;;;;;;12523328;28;20524;-85
2021/08/11 03:42:12;;;;;;;13.05;9.25;;;14.60;99.90;;;;;;12530054;28;20171;-85
2021/08/11 03:48:14;;;;;;;12.95;9.10;;;14.50;99.90;;;;;;12527219;28;20076;-85
2021/08/11 03:54:16;;;;;;;14.75;8.82;;;14.50;99.90;;;;;;12519030;28;20049;-85
2021/08/11 04:00:18;;;;;;;13.18;8.10;;;14.40;99.90;;;;;;12524388;28;20049;-85
2021/08/11 04:06:19;;;;;;;14.80;10.63;;;14.40;99.90;;;;;;12526245;28;20478;-85
2021/08/11 04:12:21;;;;;;;15.63;10.52;;;14.30;99.90;;;;;;12521072;28;20509;-85
2021/08/11 04:18:23;;;;;;;17.85;12.25;;;14.40;99.90;;;;;;12508887;28;20052;-86
2021/08/11 04:24:25;;;;;;;21.13;11.90;;;14.50;99.90;;;;;;12520575;28;20045;-85
2021/08/11 04:30:27;;;;;;;19.88;12.13;;;14.60;99.90;;;;;;12525480;28;20045;-85
2021/08/11 04:36:29;;;;;;;35.30;17.65;;;14.60;99.90;;;;;;12520093;28;20049;-85
2021/08/11 04:42:32;;;;;;;27.13;17.08;;;14.60;99.90;;;;;;12525567;28;20131;-85
2021/08/11 04:48:34;;;;;;;43.05;21.17;;;14.60;99.90;;;;;;12527669;28;20072;-86
2021/08/11 04:54:36;;;;;;;45.55;23.80;;;14.70;99.90;;;;;;12527503;28;20040;-86
2021/08/11 05:00:38;;;;;;;73.18;23.98;;;14.70;99.90;;;;;;12516314;28;20651;-86
2021/08/11 05:06:39;;;;;;;45.50;24.10;;;15.00;99.90;;;;;;12522946;28;20063;-86
2021/08/11 05:12:41;;;;;;;43.20;21.98;;;14.90;99.90;;;;;;12517109;28;20133;-86
2021/08/11 05:18:43;;;;;;;44.55;22.20;;;14.70;99.90;;;;;;12519258;28;20111;-87
2021/08/11 05:24:45;;;;;;;51.38;23.42;;;14.80;99.90;;;;;;12522769;28;20037;-86
2021/08/11 05:30:47;;;;;;;50.53;23.25;;;14.70;99.90;;;;;;12527119;28;20562;-86
2021/08/11 05:36:49;;;;;;;58.35;22.55;;;14.80;99.90;;;;;;12517125;28;20758;-86
2021/08/11 05:42:51;;;;;;;75.82;22.85;;;14.80;99.90;;;;;;12522950;28;20056;-87
2021/08/11 05:48:54;;;;;;;82.07;23.98;;;14.80;99.90;;;;;;12517682;28;20577;-86
2021/08/11 05:54:56;;;;;;;61.63;25.00;;;14.70;99.90;;;;;;12516118;28;20443;-87
2021/08/11 06:00:58;;;;;;;39.97;23.95;;;14.80;99.90;;;;;;12511842;28;20094;-87
2021/08/11 06:07:00;;;;;;;46.33;25.70;;;14.90;99.90;;;;;;12521310;28;20175;-86
2021/08/11 06:13:03;;;;;;;45.90;25.88;;;14.90;99.90;;;;;;12519654;28;20051;-87
2021/08/11 06:19:05;;;;;;;53.42;27.20;;;15.00;99.90;;;;;;12521082;28;20070;-87
2021/08/11 06:25:07;;;;;;;47.00;26.00;;;15.00;99.90;;;;;;12519563;28;20036;-87
2021/08/11 06:31:09;;;;;;;46.70;26.80;;;15.10;99.90;;;;;;12508361;28;20124;-87
2021/08/11 06:37:12;;;;;;;49.05;27.27;;;15.20;99.90;;;;;;12510514;28;20131;-86
2021/08/11 06:43:15;;;;;;;51.20;28.63;;;15.40;99.90;;;;;;12521837;28;20065;-86
2021/08/11 06:49:16;;;;;;;51.22;27.67;;;15.50;99.90;;;;;;12533329;28;20064;-87
2021/08/11 06:55:18;;;;;;;48.55;27.30;;;15.60;99.90;;;;;;12532710;28;20101;-87
2021/08/11 07:01:20;;;;;;;46.92;26.98;;;15.70;99.90;;;;;;12513797;28;20083;-87
2021/08/11 07:07:22;;;;;;;44.22;26.17;;;15.60;99.90;;;;;;12517151;28;20080;-88
2021/08/11 07:13:24;;;;;;;48.03;26.67;;;15.60;99.90;;;;;;12512746;28;20132;-88
2021/08/11 07:19:26;;;;;;;49.03;26.85;;;15.60;99.90;;;;;;12507058;28;20107;-87
2021/08/11 07:25:28;;;;;;;47.67;25.95;;;15.70;99.90;;;;;;12510570;28;20122;-87
2021/08/11 07:31:30;;;;;;;44.97;25.58;;;15.90;99.90;;;;;;12515511;28;21210;-87
2021/08/11 07:37:32;;;;;;;41.60;23.85;;;16.10;99.90;;;;;;12517336;28;20064;-88
2021/08/11 07:43:34;;;;;;;37.70;22.83;;;16.10;99.90;;;;;;12510874;28;20474;-87
2021/08/11 07:49:37;;;;;;;32.63;20.08;;;16.40;99.90;;;;;;12499979;28;20075;-87
2021/08/11 07:55:39;;;;;;;35.65;20.23;;;16.70;99.90;;;;;;12506211;28;20052;-87
2021/08/11 08:01:41;;;;;;;32.95;20.13;;;16.90;99.90;;;;;;12507628;28;20053;-87
2021/08/11 08:07:43;;;;;;;34.35;18.95;;;17.20;99.90;;;;;;12528005;28;20061;-87
2021/08/11 08:13:46;;;;;;;34.97;19.63;;;17.40;99.90;;;;;;12509461;28;20052;-87
2021/08/11 08:19:48;;;;;;;33.72;18.65;;;17.00;99.90;;;;;;12514320;28;20139;-87
2021/08/11 08:25:50;;;;;;;34.95;19.02;;;17.10;99.90;;;;;;12521173;28;20508;-87
2021/08/11 08:31:52;;;;;;;31.63;17.25;;;17.60;99.90;;;;;;12518833;28;20394;-87
2021/08/11 08:37:54;;;;;;;30.00;15.75;;;17.90;99.90;;;;;;12528019;28;20084;-87
2021/08/11 08:43:56;;;;;;;24.92;14.52;;;17.70;99.90;;;;;;12511794;28;20045;-87
2021/08/11 08:50:00;;;;;;;25.02;14.40;;;17.90;99.90;;;;;;12513543;28;20048;-87
2021/08/11 08:56:03;;;;;;;27.80;15.32;;;18.30;99.90;;;;;;12524055;28;20134;-87
2021/08/11 09:02:08;;;;;;;30.52;15.38;;;18.50;99.90;;;;;;12524763;28;20045;-87
2021/08/11 09:08:10;;;;;;;26.45;15.95;;;18.60;99.90;;;;;;12525879;28;20067;-87
2021/08/11 09:14:19;;;;;;;27.08;15.02;;;18.60;99.90;;;;;;12530563;28;20136;-86
2021/08/11 09:20:28;;;;;;;20.92;13.00;;;18.90;99.90;;;;;;12525252;28;20057;-87
2021/08/11 09:26:37;;;;;;;19.80;11.77;;;19.20;99.90;;;;;;12522987;28;20053;-87
2021/08/11 09:33:05;;;;;;;19.10;12.30;;;19.20;99.90;;;;;;12518279;28;20168;-88
2021/08/11 09:39:07;;;;;;;19.85;10.57;;;19.20;99.90;;;;;;12525053;28;20506;-87
2021/08/11 09:45:10;;;;;;;14.45;9.07;;;19.50;99.90;;;;;;12537768;28;20041;-86
2021/08/11 09:51:12;;;;;;;20.17;9.63;;;19.60;99.90;;;;;;12527058;28;20106;-87
2021/08/11 09:57:29;;;;;;;16.73;8.80;;;19.70;99.90;;;;;;12533305;28;20629;-87
2021/08/11 10:03:33;;;;;;;16.55;9.23;;;19.90;99.90;;;;;;12528180;28;20127;-87
2021/08/11 10:09:35;;;;;;;;;;;19.80;99.90;;;;;;12529652;28;20055;-87
2021/08/11 10:15:37;;;;;;;16.55;9.65;;;19.80;99.90;;;;;;12534241;28;20403;-86
2021/08/11 10:21:44;;;;;;;15.02;9.80;;;19.90;99.90;;;;;;12527619;28;20520;-87
2021/08/11 10:27:46;;;;;;;12.77;7.55;;;20.00;99.90;;;;;;12538874;28;20117;-87
2021/08/11 10:33:50;;;;;;;13.65;7.35;;;20.10;99.90;;;;;;12530654;28;20690;-87
2021/08/11 10:39:52;;;;;;;12.30;7.07;;;20.00;99.90;;;;;;12530492;28;20127;-87
2021/08/11 10:46:04;;;;;;;12.73;7.70;;;20.50;99.90;;;;;;12521471;28;20041;-88
2021/08/11 10:52:05;;;;;;;10.32;6.97;;;20.80;99.90;;;;;;12539574;28;20074;-87
2021/08/11 10:58:07;;;;;;;10.75;6.53;;;21.30;99.90;;;;;;12552595;28;20084;-89
2021/08/11 11:04:09;;;;;;;12.85;7.85;;;21.10;99.90;;;;;;12510645;28;20141;-87
2021/08/11 11:10:28;;;;;;;12.00;7.15;;;21.10;99.90;;;;;;12524941;28;20223;-86
2021/08/11 11:17:02;;;;;;;13.15;6.45;;;21.10;99.90;;;;;;12517807;28;20060;-87
2021/08/11 11:23:05;;;;;;;12.73;6.65;;;20.80;99.90;;;;;;12524574;28;20051;-87
2021/08/11 11:29:09;;;;;;;15.40;7.00;;;20.90;99.90;;;;;;12524067;28;20132;-87
2021/08/11 11:35:22;;;;;;;15.85;7.82;;;20.70;99.90;;;;;;12509016;28;20132;-87
2021/08/11 11:41:24;;;;;;;14.98;6.47;;;21.60;99.90;;;;;;12534261;28;20049;-87
2021/08/11 11:47:38;;;;;;;11.77;6.78;;;22.20;99.90;;;;;;12518737;28;20102;-88
2021/08/11 11:53:40;;;;;;;13.05;6.28;;;22.50;99.90;;;;;;12532036;28;20045;-88
2021/08/11 11:59:49;;;;;;;14.38;6.10;;;22.80;99.90;;;;;;12534449;28;20078;-87
2021/08/11 12:05:53;;;;;;;12.82;7.47;;;22.30;99.90;;;;;;12530553;28;21135;-88
2021/08/11 12:11:55;;;;;;;12.20;6.82;;;22.10;99.90;;;;;;12542914;28;20049;-87
2021/08/11 12:18:00;;;;;;;11.95;6.55;;;22.40;99.90;;;;;;12540243;28;20048;-87
2021/08/11 12:24:02;;;;;;;11.75;6.35;;;23.00;99.90;;;;;;12528321;28;20505;-88
2021/08/11 12:30:19;;;;;;;11.40;5.20;;;23.10;99.90;;;;;;12531901;28;20052;-87
2021/08/11 12:36:23;;;;;;;8.68;4.78;;;23.60;99.90;;;;;;12525942;28;20056;-88
2021/08/11 12:42:25;;;;;;;6.70;3.88;;;23.90;99.90;;;;;;12530505;28;20489;-86
2021/08/11 12:48:29;;;;;;;6.90;3.28;;;24.10;99.90;;;;;;12531327;28;20099;-87
2021/08/11 12:55:00;;;;;;;6.82;3.53;;;24.30;99.90;;;;;;12530704;28;20989;-87
2021/08/11 13:01:02;;;;;;;9.43;4.22;;;24.30;99.90;;;;;;12533303;28;20106;-87
2021/08/11 13:07:05;;;;;;;6.22;3.55;;;24.50;99.90;;;;;;12537270;28;20053;-86
2021/08/11 13:13:21;;;;;;;6.03;3.55;;;24.50;99.90;;;;;;12524968;28;20060;-88
2021/08/11 13:19:23;;;;;;;6.78;3.22;;;24.50;99.90;;;;;;12539970;28;20113;-87
2021/08/11 13:25:25;;;;;;;6.95;3.38;;;24.50;99.90;;;;;;12534375;28;20500;-86
2021/08/11 13:31:26;;;;;;;9.25;3.40;;;24.70;99.90;;;;;;12525416;28;20045;-88
2021/08/11 13:37:29;;;;;;;7.57;3.63;;;24.90;99.90;;;;;;12524996;28;20049;-87
2021/08/11 13:43:31;;;;;;;;;;;25.00;99.90;;;;;;12533708;28;20052;-88
2021/08/11 13:49:33;;;;;;;6.30;3.40;;;25.30;99.90;;;;;;12514363;28;19989;-88
2021/08/11 13:55:35;;;;;;;5.85;3.58;;;25.00;99.90;;;;;;12531027;28;20071;-88
2021/08/11 14:01:39;;;;;;;6.78;3.20;;;25.10;99.90;;;;;;12553993;28;20326;-87
2021/08/11 14:07:41;;;;;;;7.22;3.63;;;25.80;99.90;;;;;;12543859;28;20060;-87
2021/08/11 14:13:43;;;;;;;5.15;3.40;;;25.70;99.90;;;;;;12529434;28;20155;-88
2021/08/11 14:19:45;;;;;;;6.70;3.22;;;25.60;99.90;;;;;;12532832;28;20056;-87
2021/08/11 14:25:48;;;;;;;5.88;3.10;;;25.10;99.90;;;;;;12516230;28;20182;-88
2021/08/11 14:31:50;;;;;;;5.72;3.28;;;25.00;99.90;;;;;;12512071;28;20045;-87
2021/08/11 14:37:52;;;;;;;4.25;3.00;;;25.40;99.90;;;;;;12522837;28;20057;-88
2021/08/11 14:43:54;;;;;;;4.60;2.92;;;25.60;99.90;;;;;;12522168;28;20093;-87
2021/08/11 14:49:56;;;;;;;5.85;3.90;;;25.80;99.90;;;;;;12517234;28;20555;-87
2021/08/11 14:55:57;;;;;;;4.63;3.00;;;25.10;99.90;;;;;;12524616;28;20098;-86
2021/08/11 15:01:59;;;;;;;7.35;3.55;;;25.30;99.90;;;;;;12523386;28;20122;-87
2021/08/11 15:08:02;;;;;;;7.47;3.67;;;25.20;99.90;;;;;;12521677;28;20470;-86
2021/08/11 15:14:03;;;;;;;8.38;3.97;;;25.50;99.90;;;;;;12525688;28;20501;-87
2021/08/11 15:20:07;;;;;;;7.10;3.38;;;25.50;99.90;;;;;;12519909;28;20079;-87
2021/08/11 15:26:09;;;;;;;4.75;3.33;;;25.90;99.90;;;;;;12516635;28;20105;-86
2021/08/11 15:32:11;;;;;;;7.83;3.63;;;26.00;99.90;;;;;;12510232;28;20048;-87
2021/08/11 15:38:13;;;;;;;6.32;3.80;;;25.30;99.90;;;;;;12517172;28;20060;-87
2021/08/11 15:44:15;;;;;;;5.72;3.63;;;25.30;99.90;;;;;;12522627;28;20044;-87
2021/08/11 15:50:17;;;;;;;6.90;3.25;;;25.50;99.90;;;;;;12524742;28;20102;-87
2021/08/11 15:56:19;;;;;;;4.53;3.23;;;25.80;99.90;;;;;;12530181;28;20121;-87
2021/08/11 16:02:22;;;;;;;7.38;3.80;;;26.00;99.90;;;;;;12522936;28;20126;-86
2021/08/11 16:08:24;;;;;;;7.80;3.60;;;26.10;99.90;;;;;;12518412;28;20059;-86
2021/08/11 16:14:26;;;;;;;5.10;3.40;;;26.10;99.90;;;;;;12521059;28;20242;-87
2021/08/11 16:20:28;;;;;;;5.60;3.80;;;26.00;99.90;;;;;;12501335;28;20179;-86
2021/08/11 16:26:30;;;;;;;5.45;3.75;;;25.80;99.90;;;;;;12513687;28;20057;-86
2021/08/11 16:32:32;;;;;;;5.65;3.55;;;26.10;99.90;;;;;;12508509;28;20049;-87
2021/08/11 16:38:33;;;;;;;7.13;3.95;;;26.30;99.90;;;;;;12523289;28;20199;-86
2021/08/11 16:44:35;;;;;;;5.07;3.53;;;26.30;99.90;;;;;;12521316;28;20052;-87
2021/08/11 16:50:37;;;;;;;6.60;4.10;;;26.30;99.90;;;;;;12529120;28;20093;-87
2021/08/11 16:56:40;;;;;;;6.43;3.97;;;26.10;99.90;;;;;;12526582;28;20112;-87
2021/08/11 17:02:43;;;;;;;6.45;3.72;;;26.10;99.90;;;;;;12552643;28;20575;-87
2021/08/11 17:08:47;;;;;;;5.03;3.55;;;26.10;99.90;;;;;;12519385;28;20052;-87
2021/08/11 17:14:50;;;;;;;6.68;4.03;;;26.10;99.90;;;;;;12520982;28;20053;-87
2021/08/11 17:20:52;;;;;;;5.97;3.85;;;26.10;99.90;;;;;;12516863;28;20435;-86
2021/08/11 17:26:55;;;;;;;5.22;3.50;;;26.20;99.90;;;;;;12518375;28;20489;-87
2021/08/11 17:32:57;;;;;;;5.75;3.80;;;25.90;99.90;;;;;;12513779;28;20852;-87
2021/08/11 17:38:59;;;;;;;5.43;3.47;;;25.60;99.90;;;;;;12527338;28;20055;-86
2021/08/11 17:45:01;;;;;;;5.47;3.90;;;25.50;99.90;;;;;;12521974;28;20103;-87
2021/08/11 17:51:03;;;;;;;6.17;3.90;;;25.20;99.90;;;;;;12538471;28;20045;-87
2021/08/11 17:57:05;;;;;;;6.33;4.10;;;25.00;99.90;;;;;;12528257;28;20053;-87
2021/08/11 18:03:07;;;;;;;5.57;4.00;;;24.60;99.90;;;;;;12514304;28;20049;-87
2021/08/11 18:09:11;;;;;;;5.75;4.10;;;24.20;99.90;;;;;;12528321;28;20096;-87
2021/08/11 18:15:13;;;;;;;8.32;4.32;;;23.70;99.90;;;;;;12520408;28;20057;-86
2021/08/11 18:21:15;;;;;;;9.48;4.38;;;22.80;99.90;;;;;;12522988;28;20048;-86
2021/08/11 18:27:17;;;;;;;5.70;4.05;;;22.10;99.90;;;;;;12517402;28;20151;-86
2021/08/11 18:33:19;;;;;;;7.93;4.32;;;21.60;99.90;;;;;;12521848;28;20049;-86
2021/08/11 18:39:21;;;;;;;5.43;4.05;;;21.10;99.90;;;;;;12525065;28;20404;-86
2021/08/11 18:45:23;;;;;;;6.43;4.45;;;20.80;99.90;;;;;;12526924;28;20041;-86
2021/08/11 18:51:24;;;;;;;6.70;4.30;;;20.70;99.90;;;;;;12515680;28;20125;-86
2021/08/11 18:57:26;;;;;;;6.47;4.70;;;20.70;99.90;;;;;;12506418;28;20127;-86
2021/08/11 19:03:32;;;;;;;17.88;5.28;;;20.40;99.90;;;;;;12522587;28;20052;-86
2021/08/11 19:09:34;;;;;;;11.40;4.88;;;20.20;99.90;;;;;;12553924;28;20064;-86
2021/08/11 19:15:36;;;;;;;9.93;4.68;;;20.10;99.90;;;;;;12531970;28;20067;-86
2021/08/11 19:21:39;;;;;;;6.50;4.40;;;20.00;99.90;;;;;;12524892;28;20471;-87
2021/08/11 19:27:41;;;;;;;6.83;4.50;;;19.70;99.90;;;;;;12530143;28;20049;-85
2021/08/11 19:33:43;;;;;;;7.32;4.50;;;19.70;99.90;;;;;;12532014;28;20120;-85
2021/08/11 19:39:45;;;;;;;8.10;5.03;;;19.40;99.90;;;;;;12529748;28;20513;-85
2021/08/11 19:45:46;;;;;;;8.48;4.68;;;19.20;99.90;;;;;;12521654;28;20772;-86
2021/08/11 19:51:49;;;;;;;13.35;4.93;;;19.20;99.90;;;;;;12527578;28;20044;-85
2021/08/11 19:57:51;;;;;;;8.52;4.90;;;18.90;99.90;;;;;;12529845;28;20206;-86
2021/08/11 20:03:53;;;;;;;9.73;5.35;;;18.90;99.90;;;;;;12531090;28;20553;-85
2021/08/11 20:09:54;;;;;;;15.40;5.72;;;18.90;99.90;;;;;;12530414;28;20297;-86
2021/08/11 20:15:56;;;;;;;11.50;5.63;;;18.50;99.90;;;;;;12538839;28;20083;-85
2021/08/11 20:21:58;;;;;;;17.38;5.03;;;18.50;99.90;;;;;;12536315;28;20136;-85
2021/08/11 20:28:00;;;;;;;10.20;5.43;;;18.30;99.90;;;;;;12538431;28;20057;-85
2021/08/11 20:34:02;;;;;;;7.93;4.70;;;18.30;99.90;;;;;;12533035;28;20041;-85
2021/08/11 20:40:04;;;;;;;6.13;4.80;;;18.20;99.90;;;;;;12537295;28;20075;-85
2021/08/11 20:46:06;;;;;;;6.63;5.07;;;18.00;99.90;;;;;;12541602;28;20090;-85
2021/08/11 20:52:08;;;;;;;9.00;5.30;;;18.00;99.90;;;;;;12530309;28;20119;-85
2021/08/11 20:58:10;;;;;;;7.45;5.55;;;17.70;99.90;;;;;;12537880;28;20637;-85
2021/08/11 21:04:12;;;;;;;7.30;5.15;;;17.60;99.90;;;;;;12530228;28;20049;-85
2021/08/11 21:10:14;;;;;;;11.95;5.70;;;17.70;99.90;;;;;;12520153;28;20084;-85
2021/08/11 21:16:16;;;;;;;8.73;5.63;;;17.70;99.90;;;;;;12533149;28;20591;-85
2021/08/11 21:22:18;;;;;;;9.20;5.50;;;17.50;99.90;;;;;;12524827;28;20045;-85
2021/08/11 21:28:19;;;;;;;6.57;5.30;;;17.30;99.90;;;;;;12530576;28;20128;-85
2021/08/11 21:34:21;;;;;;;7.18;6.03;;;17.40;99.90;;;;;;12539353;28;20045;-85
2021/08/11 21:40:23;;;;;;;7.13;5.50;;;17.50;99.90;;;;;;12535744;28;20045;-84
2021/08/11 21:46:25;;;;;;;7.60;5.40;;;17.70;99.90;;;;;;12542318;28;20136;-85
2021/08/11 21:52:27;;;;;;;7.20;5.65;;;17.70;99.90;;;;;;12537818;28;20102;-85
2021/08/11 21:58:29;;;;;;;9.15;5.75;;;17.60;99.90;;;;;;12521006;28;20092;-85
2021/08/11 22:04:30;;;;;;;7.55;5.78;;;17.70;99.90;;;;;;12532943;28;20145;-85
2021/08/11 22:10:32;;;;;;;6.85;5.50;;;17.70;99.90;;;;;;12495454;28;1071863;-85
2021/08/11 22:16:34;;;;;;;7.82;6.03;;;17.60;99.90;;;;;;12541810;28;20175;-85
2021/08/11 22:22:37;;;;;;;8.52;6.07;;;17.60;99.90;;;;;;12558701;28;20049;-85
2021/08/11 22:28:40;;;;;;;6.10;5.40;;;17.60;99.90;;;;;;12525166;28;20049;-85
2021/08/11 22:34:41;;;;;;;6.63;5.93;;;17.60;99.90;;;;;;12522928;28;20132;-85
2021/08/11 22:40:46;;;;;;;7.20;5.80;;;17.50;99.90;;;;;;12530353;28;20151;-85
2021/08/11 22:46:48;;;;;;;7.40;6.05;;;17.40;99.90;;;;;;12525473;28;20049;-85
2021/08/11 22:52:49;;;;;;;6.78;6.05;;;17.30;99.90;;;;;;12528515;28;20538;-85
2021/08/11 22:58:52;;;;;;;7.07;5.78;;;17.20;99.90;;;;;;12529642;28;20377;-85
2021/08/11 23:04:53;;;;;;;8.65;6.00;;;17.10;99.90;;;;;;12521229;28;20531;-85
2021/08/11 23:10:57;;;;;;;8.18;6.22;;;17.10;99.90;;;;;;12523002;28;20045;-85
2021/08/11 23:16:59;;;;;;;;;;;17.20;99.90;;;;;;12532386;28;20053;-85
2021/08/11 23:23:01;;;;;;;8.88;6.30;;;17.30;99.90;;;;;;12533104;28;19985;-85
2021/08/11 23:29:04;;;;;;;7.93;6.15;;;17.30;99.90;;;;;;12517624;28;20103;-85
2021/08/11 23:35:07;;;;;;;7.93;6.27;;;17.20;99.90;;;;;;12521525;28;20452;-85
2021/08/11 23:41:11;;;;;;;8.18;6.65;;;17.20;99.90;;;;;;12525944;28;20041;-85
2021/08/11 23:47:13;;;;;;;9.55;7.57;;;17.10;99.90;;;;;;12523492;28;20049;-85
2021/08/11 23:53:15;;;;;;;9.88;7.50;;;17.10;99.90;;;;;;12528021;28;20407;-85
2021/08/11 23:59:16;;;;;;;12.15;7.50;;;17.00;99.90;;;;;;12529132;28;20052;-85
